createdAt,value
2018-05-23T00:01:21.715Z,15.95
2018-05-23T00:03:49.969Z,15.70
2018-05-23T00:06:18.979Z,15.65
2018-05-23T00:08:47.997Z,15.74
2018-05-23T00:11:16.240Z,15.67
2018-05-23T00:13:45.261Z,15.54
2018-05-23T00:16:13.506Z,15.54
2018-05-23T00:18:42.519Z,15.58
2018-05-23T00:21:10.773Z,15.52
2018-05-23T00:23:39.793Z,15.51
2018-05-23T00:26:08.036Z,15.62
2018-05-23T00:28:37.051Z,15.81
2018-05-23T00:31:05.291Z,16.17
2018-05-23T00:33:33.555Z,16.36
2018-05-23T00:36:01.803Z,16.49
2018-05-23T00:38:30.046Z,16.52
2018-05-23T00:40:59.064Z,16.55
2018-05-23T00:43:27.300Z,16.61
2018-05-23T00:45:56.311Z,16.64
2018-05-23T00:48:24.547Z,16.64
2018-05-23T00:50:52.792Z,16.61
2018-05-23T00:53:21.034Z,16.63
2018-05-23T00:55:50.045Z,16.63
2018-05-23T00:58:18.282Z,16.61
2018-05-23T01:00:46.533Z,16.60
2018-05-23T01:03:14.769Z,16.57
2018-05-23T01:05:43.015Z,16.54
2018-05-23T01:08:12.024Z,16.50
2018-05-23T01:10:40.284Z,16.44
2018-05-23T01:13:09.406Z,16.50
2018-05-23T01:15:37.650Z,16.44
2018-05-23T01:18:05.897Z,16.41
2018-05-23T01:20:34.132Z,16.42
2018-05-23T01:23:02.391Z,16.41
2018-05-23T01:25:31.496Z,16.39
2018-05-23T01:27:59.744Z,16.39
2018-05-23T01:30:27.987Z,16.40
2018-05-23T01:32:56.240Z,16.37
2018-05-23T01:35:24.475Z,16.41
2018-05-23T01:37:53.483Z,16.42
2018-05-23T01:40:21.723Z,16.40
2018-05-23T01:42:51.479Z,16.41
2018-05-23T01:45:19.719Z,16.42
2018-05-23T01:47:47.975Z,16.41
2018-05-23T01:50:16.221Z,16.41
2018-05-23T01:52:44.470Z,16.36
2018-05-23T01:55:13.471Z,16.35
2018-05-23T01:57:41.719Z,16.32
2018-05-23T02:00:10.729Z,16.33
2018-05-23T02:02:39.744Z,16.27
2018-05-23T02:05:07.986Z,16.30
2018-05-23T02:07:36.999Z,16.25
2018-05-23T02:10:05.239Z,16.25
2018-05-23T02:12:34.248Z,16.22
2018-05-23T02:15:03.260Z,16.13
2018-05-23T02:17:31.515Z,15.72
2018-05-23T02:20:00.524Z,15.62
2018-05-23T02:22:28.771Z,15.67
2018-05-23T02:24:57.024Z,15.77
2018-05-23T02:27:25.268Z,15.75
2018-05-23T02:29:53.519Z,15.75
2018-05-23T02:32:22.530Z,15.68
2018-05-23T02:34:50.788Z,15.55
2018-05-23T02:37:19.800Z,15.57
2018-05-23T02:39:48.048Z,15.63
2018-05-23T02:42:17.056Z,15.56
2018-05-23T02:44:46.070Z,15.56
2018-05-23T02:47:14.388Z,15.57
2018-05-23T02:49:43.333Z,15.52
2018-05-23T02:52:11.576Z,15.23
2018-05-23T02:54:40.595Z,15.06
2018-05-23T02:57:08.851Z,15.13
2018-05-23T02:59:37.870Z,15.00
2018-05-23T03:02:06.105Z,15.08
2018-05-23T03:04:34.358Z,15.13
2018-05-23T03:07:02.596Z,15.11
2018-05-23T03:09:30.846Z,14.98
2018-05-23T03:11:59.857Z,15.00
2018-05-23T03:14:28.101Z,14.92
2018-05-23T03:16:56.339Z,14.92
2018-05-23T03:19:24.587Z,14.92
2018-05-23T03:21:52.840Z,14.95
2018-05-23T03:24:21.863Z,14.98
2018-05-23T03:26:50.116Z,14.99
2018-05-23T03:29:19.123Z,14.91
2018-05-23T03:31:47.375Z,14.88
2018-05-23T03:34:16.387Z,14.92
2018-05-23T03:36:44.639Z,14.92
2018-05-23T03:39:13.648Z,15.00
2018-05-23T03:41:41.899Z,15.06
2018-05-23T03:44:10.160Z,15.01
2018-05-23T03:46:38.400Z,14.97
2018-05-23T03:49:06.643Z,15.06
2018-05-23T03:51:35.656Z,15.19
2018-05-23T03:54:03.892Z,15.42
2018-05-23T03:56:32.142Z,15.41
2018-05-23T03:59:00.395Z,15.51
2018-05-23T04:01:46.506Z,15.36
2018-05-23T04:04:32.645Z,15.40
2018-05-23T04:10:14.090Z,15.21
2018-05-23T04:12:42.338Z,15.26
2018-05-23T04:15:11.345Z,15.29
2018-05-23T04:17:39.596Z,15.24
2018-05-23T04:20:08.600Z,15.18
2018-05-23T04:22:36.853Z,15.03
2018-05-23T04:25:05.095Z,15.16
2018-05-23T04:27:33.347Z,15.20
2018-05-23T04:30:01.592Z,15.15
2018-05-23T04:32:30.608Z,15.28
2018-05-23T04:34:58.847Z,15.38
2018-05-23T04:37:27.867Z,15.45
2018-05-23T04:39:56.127Z,15.60
2018-05-23T04:42:25.127Z,15.68
2018-05-23T04:44:53.384Z,15.66
2018-05-23T04:47:22.411Z,15.67
2018-05-23T04:49:50.655Z,15.65
2018-05-23T04:52:19.660Z,15.64
2018-05-23T04:54:48.677Z,15.68
2018-05-23T04:57:16.914Z,15.77
2018-05-23T04:59:45.927Z,15.83
2018-05-23T05:02:14.170Z,15.84
2018-05-23T05:04:42.419Z,15.80
2018-05-23T05:07:10.665Z,15.77
2018-05-23T05:09:38.919Z,15.95
2018-05-23T05:12:07.955Z,15.95
2018-05-23T05:14:36.210Z,15.97
2018-05-23T05:17:04.452Z,16.07
2018-05-23T05:19:32.705Z,16.05
2018-05-23T05:22:00.949Z,16.10
2018-05-23T05:24:29.194Z,16.21
2018-05-23T05:26:57.442Z,16.30
2018-05-23T05:29:25.695Z,16.33
2018-05-23T05:31:53.980Z,16.30
2018-05-23T05:34:22.191Z,16.43
2018-05-23T05:36:51.206Z,16.48
2018-05-23T05:39:19.466Z,16.54
2018-05-23T05:41:48.465Z,16.68
2018-05-23T05:44:16.712Z,16.76
2018-05-23T05:46:44.956Z,16.89
2018-05-23T05:49:13.197Z,16.94
2018-05-23T05:51:41.447Z,16.88
2018-05-23T05:54:10.451Z,16.89
2018-05-23T05:56:39.464Z,16.96
2018-05-23T05:59:07.708Z,17.01
2018-05-23T06:01:36.723Z,16.87
2018-05-23T06:04:04.971Z,17.11
2018-05-23T06:06:33.210Z,17.12
2018-05-23T06:09:01.445Z,17.24
2018-05-23T06:11:29.695Z,17.39
2018-05-23T06:13:58.703Z,17.22
2018-05-23T06:16:27.716Z,17.21
2018-05-23T06:18:55.965Z,17.53
2018-05-23T06:21:24.970Z,17.64
2018-05-23T06:23:53.212Z,17.78
2018-05-23T06:26:22.965Z,17.86
2018-05-23T06:28:51.210Z,17.66
2018-05-23T06:31:19.451Z,17.82
2018-05-23T06:33:47.692Z,17.64
2018-05-23T06:36:15.944Z,17.61
2018-05-23T06:38:44.961Z,17.80
2018-05-23T06:41:13.214Z,17.89
2018-05-23T06:43:42.326Z,17.93
2018-05-23T06:46:10.478Z,17.92
2018-05-23T06:48:38.728Z,17.95
2018-05-23T06:51:06.972Z,17.97
2018-05-23T06:53:35.221Z,17.76
2018-05-23T06:56:04.223Z,17.69
2018-05-23T06:58:32.475Z,17.68
2018-05-23T07:01:00.715Z,17.94
2018-05-23T07:03:28.963Z,17.92
2018-05-23T07:05:57.309Z,18.09
2018-05-23T07:08:26.231Z,18.21
2018-05-23T07:10:54.480Z,18.22
2018-05-23T07:13:23.500Z,18.24
2018-05-23T07:15:51.748Z,18.28
2018-05-23T07:18:20.771Z,18.34
2018-05-23T07:20:49.012Z,18.51
2018-05-23T07:23:18.038Z,18.56
2018-05-23T07:25:46.307Z,18.69
2018-05-23T07:28:14.547Z,18.84
2018-05-23T07:30:42.791Z,18.90
2018-05-23T07:33:11.047Z,19.00
2018-05-23T07:35:39.285Z,19.11
2018-05-23T07:38:08.307Z,19.01
2018-05-23T07:40:36.544Z,19.20
2018-05-23T07:43:05.555Z,19.23
2018-05-23T07:45:34.571Z,19.33
2018-05-23T07:48:02.804Z,19.47
2018-05-23T07:50:31.047Z,19.81
2018-05-23T07:52:59.282Z,19.85
2018-05-23T07:55:27.584Z,19.95
2018-05-23T07:57:55.826Z,19.57
2018-05-23T08:00:24.084Z,19.53
2018-05-23T08:02:52.315Z,19.39
2018-05-23T08:05:20.563Z,19.31
2018-05-23T08:07:48.808Z,19.43
2018-05-23T08:10:17.062Z,19.44
2018-05-23T08:12:45.331Z,19.56
2018-05-23T08:15:13.559Z,19.99
2018-05-23T08:17:41.808Z,19.53
2018-05-23T08:20:10.052Z,19.71
2018-05-23T08:22:38.297Z,19.89
2018-05-23T08:25:06.548Z,19.99
2018-05-23T08:27:35.552Z,20.24
2018-05-23T08:30:03.800Z,20.38
2018-05-23T08:32:32.048Z,20.74
2018-05-23T08:35:00.292Z,20.73
2018-05-23T08:37:28.546Z,20.83
2018-05-23T08:39:56.788Z,20.64
2018-05-23T08:42:25.039Z,20.78
2018-05-23T08:44:53.281Z,21.33
2018-05-23T08:47:21.535Z,21.33
2018-05-23T08:49:50.551Z,20.98
2018-05-23T08:52:18.813Z,21.24
2018-05-23T08:54:47.816Z,21.81
2018-05-23T08:57:16.069Z,21.85
2018-05-23T08:59:45.092Z,21.76
2018-05-23T09:02:13.343Z,21.76
2018-05-23T09:04:42.406Z,21.82
2018-05-23T09:07:10.626Z,21.98
2018-05-23T09:09:38.870Z,21.39
2018-05-23T09:12:07.135Z,21.54
2018-05-23T09:14:35.381Z,21.24
2018-05-23T09:17:03.642Z,21.64
2018-05-23T09:19:31.888Z,21.88
2018-05-23T09:22:00.918Z,21.92
2018-05-23T09:24:29.177Z,22.29
2018-05-23T09:26:57.432Z,22.48
2018-05-23T09:29:26.464Z,22.54
2018-05-23T09:31:54.716Z,22.31
2018-05-23T09:34:22.968Z,22.61
2018-05-23T09:36:51.985Z,22.63
2018-05-23T09:39:20.233Z,22.85
2018-05-23T09:41:48.497Z,22.13
2018-05-23T09:44:16.765Z,22.72
2018-05-23T09:46:44.999Z,22.96
2018-05-23T09:49:13.254Z,22.81
2018-05-23T09:51:42.277Z,22.83
2018-05-23T09:54:10.539Z,23.32
2018-05-23T09:56:38.780Z,23.32
2018-05-23T09:59:07.794Z,23.32
2018-05-23T10:01:36.118Z,23.21
2018-05-23T10:04:04.296Z,23.43
2018-05-23T10:06:32.540Z,23.77
2018-05-23T10:09:00.801Z,24.31
2018-05-23T10:11:29.049Z,24.45
2018-05-23T10:13:57.308Z,24.14
2018-05-23T10:16:25.547Z,24.42
2018-05-23T10:18:53.803Z,24.64
2018-05-23T10:21:22.049Z,24.14
2018-05-23T10:23:50.303Z,23.86
2018-05-23T10:26:18.619Z,23.43
2018-05-23T10:28:46.864Z,23.18
2018-05-23T10:31:15.059Z,23.31
2018-05-23T10:33:44.084Z,23.36
2018-05-23T10:36:12.333Z,24.01
2018-05-23T10:38:41.350Z,24.15
2018-05-23T10:41:09.603Z,24.15
2018-05-23T10:43:38.621Z,24.77
2018-05-23T10:46:06.905Z,24.81
2018-05-23T10:48:35.885Z,25.17
2018-05-23T10:51:04.146Z,24.74
2018-05-23T10:53:33.162Z,24.62
2018-05-23T10:56:01.449Z,24.38
2018-05-23T10:58:30.427Z,24.26
2018-05-23T11:00:58.684Z,24.45
2018-05-23T11:03:27.687Z,25.92
2018-05-23T11:05:56.007Z,26.05
2018-05-23T11:08:24.947Z,25.62
2018-05-23T11:10:53.205Z,26.16
2018-05-23T11:13:22.224Z,25.73
2018-05-23T11:15:50.488Z,26.93
2018-05-23T11:18:19.491Z,25.03
2018-05-23T11:20:47.743Z,24.87
2018-05-23T11:23:16.772Z,24.90
2018-05-23T11:25:45.028Z,25.66
2018-05-23T11:28:14.041Z,25.98
2018-05-23T11:30:42.293Z,25.16
2018-05-23T11:33:11.303Z,25.59
2018-05-23T11:35:39.563Z,26.39
2018-05-23T11:38:08.572Z,24.43
2018-05-23T11:40:36.821Z,25.79
2018-05-23T11:43:05.853Z,25.82
2018-05-23T11:45:34.092Z,26.98
2018-05-23T11:48:03.107Z,26.32
2018-05-23T11:50:31.354Z,25.47
2018-05-23T11:53:00.373Z,25.80
2018-05-23T11:55:28.621Z,26.23
2018-05-23T11:57:57.641Z,26.35
2018-05-23T12:00:25.888Z,26.03
2018-05-23T12:02:54.906Z,26.20
2018-05-23T12:05:23.157Z,24.51
2018-05-23T12:07:51.403Z,24.51
2018-05-23T12:10:19.675Z,24.81
2018-05-23T12:12:47.912Z,25.30
2018-05-23T12:15:16.158Z,25.13
2018-05-23T12:17:45.182Z,24.93
2018-05-23T12:20:13.424Z,24.77
2018-05-23T12:22:41.681Z,24.89
2018-05-23T12:25:09.940Z,24.75
2018-05-23T12:27:38.187Z,24.53
2018-05-23T12:30:06.435Z,24.12
2018-05-23T12:32:35.466Z,24.46
2018-05-23T12:35:03.700Z,23.50
2018-05-23T12:37:32.721Z,22.65
2018-05-23T12:40:00.965Z,22.14
2018-05-23T12:42:29.232Z,22.22
2018-05-23T12:44:57.477Z,21.93
2018-05-23T12:47:25.724Z,22.11
2018-05-23T12:49:53.968Z,22.42
2018-05-23T12:52:22.996Z,22.14
2018-05-23T12:54:51.244Z,22.55
2018-05-23T12:57:20.260Z,22.63
2018-05-23T12:59:48.515Z,22.31
2018-05-23T13:02:17.529Z,22.25
2018-05-23T13:04:45.780Z,21.71
2018-05-23T13:07:14.785Z,21.84
2018-05-23T13:09:43.039Z,21.71
2018-05-23T13:12:11.286Z,21.46
2018-05-23T13:14:39.545Z,21.17
2018-05-23T13:17:07.779Z,20.92
2018-05-23T13:19:36.812Z,20.83
2018-05-23T13:22:05.063Z,20.48
2018-05-23T13:24:33.312Z,20.89
2018-05-23T13:27:02.323Z,20.79
2018-05-23T13:29:30.571Z,20.73
2018-05-23T13:31:58.812Z,20.72
2018-05-23T13:34:27.064Z,20.23
2018-05-23T13:36:55.305Z,20.52
2018-05-23T13:39:24.325Z,20.35
2018-05-23T13:41:52.571Z,20.50
2018-05-23T13:44:21.165Z,20.64
2018-05-23T13:46:50.188Z,19.94
2018-05-23T13:49:18.454Z,20.17
2018-05-23T13:51:46.696Z,19.86
2018-05-23T13:54:14.935Z,19.73
2018-05-23T13:56:43.196Z,19.83
2018-05-23T13:59:11.427Z,20.02
2018-05-23T14:01:40.472Z,19.85
2018-05-23T14:04:08.684Z,19.95
2018-05-23T14:06:36.962Z,20.05
2018-05-23T14:09:05.997Z,19.65
2018-05-23T14:11:34.255Z,19.85
2018-05-23T14:14:03.275Z,19.52
2018-05-23T14:16:31.527Z,19.56
2018-05-23T14:18:59.926Z,19.65
2018-05-23T14:21:28.209Z,19.73
2018-05-23T14:23:56.452Z,19.85
2018-05-23T14:26:25.473Z,19.66
2018-05-23T14:28:53.719Z,19.47
2018-05-23T14:31:22.730Z,19.43
2018-05-23T14:33:50.975Z,19.38
2018-05-23T14:36:19.991Z,19.22
2018-05-23T14:38:48.244Z,19.37
2018-05-23T14:41:17.391Z,19.01
2018-05-23T14:43:45.724Z,19.12
2018-05-23T14:46:13.886Z,18.84
2018-05-23T14:48:42.911Z,18.69
2018-05-23T14:51:11.155Z,18.58
2018-05-23T14:53:40.173Z,18.56
2018-05-23T14:56:08.419Z,18.50
2018-05-23T14:58:36.746Z,18.28
2018-05-23T15:01:04.916Z,18.25
2018-05-23T15:03:33.171Z,18.13
2018-05-23T15:06:02.183Z,18.25
2018-05-23T15:08:30.508Z,18.40
2018-05-23T15:10:58.691Z,18.17
2018-05-23T15:13:26.943Z,17.87
2018-05-23T15:15:55.192Z,17.73
2018-05-23T15:18:23.442Z,17.54
2018-05-23T15:20:52.448Z,17.53
2018-05-23T15:23:20.706Z,17.54
2018-05-23T15:25:49.722Z,17.54
2018-05-23T15:28:17.968Z,17.54
2018-05-23T15:30:46.976Z,17.53
2018-05-23T15:33:15.221Z,17.47
2018-05-23T15:35:43.460Z,17.43
2018-05-23T15:38:11.715Z,17.55
2018-05-23T15:40:39.955Z,17.38
2018-05-23T15:43:08.971Z,17.41
2018-05-23T15:45:37.213Z,17.28
2018-05-23T15:48:05.460Z,17.32
2018-05-23T15:50:33.704Z,17.15
2018-05-23T15:53:01.955Z,17.02
2018-05-23T15:55:30.962Z,17.19
2018-05-23T15:57:59.204Z,17.34
2018-05-23T16:00:27.454Z,17.21
2018-05-23T16:02:55.704Z,17.07
2018-05-23T16:05:23.948Z,17.03
2018-05-23T16:07:52.959Z,17.18
2018-05-23T16:10:21.202Z,17.11
2018-05-23T16:12:49.446Z,17.10
2018-05-23T16:15:17.703Z,17.13
2018-05-23T16:17:45.938Z,17.22
2018-05-23T16:20:14.963Z,17.46
2018-05-23T16:22:43.203Z,17.58
2018-05-23T16:25:11.450Z,17.57
2018-05-23T16:27:39.693Z,17.59
2018-05-23T16:30:07.945Z,17.69
2018-05-23T16:32:36.959Z,17.73
2018-05-23T16:35:05.231Z,17.84
2018-05-23T16:37:33.475Z,17.96
2018-05-23T16:40:02.496Z,17.97
2018-05-23T16:42:30.744Z,17.98
2018-05-23T16:44:59.761Z,18.08
2018-05-23T16:47:28.016Z,18.30
2018-05-23T16:49:57.031Z,18.25
2018-05-23T16:52:25.281Z,18.92
2018-05-23T16:54:54.300Z,18.92
2018-05-23T16:57:22.553Z,19.09
2018-05-23T16:59:51.577Z,19.56
2018-05-23T17:02:19.823Z,18.85
2018-05-23T17:04:48.833Z,18.92
2018-05-23T17:07:17.084Z,19.00
2018-05-23T17:09:46.109Z,19.09
2018-05-23T17:12:14.352Z,19.21
2018-05-23T17:14:42.592Z,19.17
2018-05-23T17:17:10.848Z,19.22
2018-05-23T17:19:39.091Z,19.26
2018-05-23T17:22:08.335Z,19.27
2018-05-23T17:24:36.584Z,19.73
2018-05-23T17:27:04.851Z,20.24
2018-05-23T17:29:33.863Z,20.67
2018-05-23T17:32:02.117Z,20.78
2018-05-23T17:34:31.135Z,20.28
2018-05-23T17:36:59.380Z,20.46
2018-05-23T17:39:28.383Z,19.72
2018-05-23T17:41:57.400Z,20.01
2018-05-23T17:44:25.674Z,19.86
2018-05-23T17:46:54.655Z,19.31
2018-05-23T17:49:22.903Z,19.29
2018-05-23T17:51:51.919Z,18.99
2018-05-23T17:54:20.172Z,18.81
2018-05-23T17:56:49.205Z,18.64
2018-05-23T17:59:17.442Z,18.54
2018-05-23T18:01:46.462Z,18.43
2018-05-23T18:04:14.698Z,18.38
2018-05-23T18:06:42.949Z,18.37
2018-05-23T18:09:11.214Z,18.37
2018-05-23T18:11:39.451Z,18.22
2018-05-23T18:14:08.461Z,18.02
2018-05-23T18:16:36.740Z,18.15
2018-05-23T18:19:05.724Z,18.14
2018-05-23T18:21:34.026Z,18.02
2018-05-23T18:24:02.273Z,17.94
2018-05-23T18:26:31.287Z,17.91
2018-05-23T18:28:59.532Z,17.92
2018-05-23T18:31:28.544Z,17.95
2018-05-23T18:33:56.803Z,17.83
2018-05-23T18:36:25.812Z,17.74
2018-05-23T18:38:54.071Z,17.55
2018-05-23T18:41:23.088Z,17.48
2018-05-23T18:43:51.341Z,17.51
2018-05-23T18:46:20.344Z,17.44
2018-05-23T18:48:48.595Z,17.48
2018-05-23T18:51:17.607Z,17.45
2018-05-23T18:53:46.632Z,17.39
2018-05-23T18:56:14.871Z,17.35
2018-05-23T18:58:43.894Z,17.34
2018-05-23T19:01:12.137Z,17.37
2018-05-23T19:03:41.158Z,17.32
2018-05-23T19:06:09.397Z,17.21
2018-05-23T19:08:38.415Z,17.23
2018-05-23T19:11:06.655Z,17.17
2018-05-23T19:13:34.905Z,17.11
2018-05-23T19:16:03.151Z,17.13
2018-05-23T19:18:31.407Z,17.05
2018-05-23T19:20:59.673Z,17.09
2018-05-23T19:23:28.720Z,17.13
2018-05-23T19:25:56.964Z,17.03
2018-05-23T19:28:25.260Z,17.01
2018-05-23T19:30:53.536Z,16.96
2018-05-23T19:33:21.782Z,16.91
2018-05-23T19:35:50.796Z,16.90
2018-05-23T19:38:19.039Z,16.89
2018-05-23T19:40:48.087Z,16.90
2018-05-23T19:43:16.328Z,16.85
2018-05-23T19:45:44.575Z,16.82
2018-05-23T19:48:13.594Z,16.80
2018-05-23T19:50:41.843Z,16.76
2018-05-23T19:53:10.848Z,16.73
2018-05-23T19:55:39.892Z,16.69
2018-05-23T19:58:08.131Z,16.66
2018-05-23T20:00:36.394Z,16.62
2018-05-23T20:03:05.400Z,16.60
2018-05-23T20:05:33.647Z,16.63
2018-05-23T20:08:02.685Z,16.64
2018-05-23T20:10:31.680Z,16.67
2018-05-23T20:12:59.934Z,16.67
2018-05-23T20:15:28.179Z,16.67
2018-05-23T20:17:56.423Z,16.66
2018-05-23T20:20:24.685Z,16.62
2018-05-23T20:22:52.931Z,16.61
2018-05-23T20:25:21.945Z,16.64
2018-05-23T20:27:50.194Z,16.60
2018-05-23T20:30:19.214Z,16.62
2018-05-23T20:32:47.467Z,16.52
2018-05-23T20:35:16.477Z,16.51
2018-05-23T20:37:44.745Z,16.53
2018-05-23T20:40:12.997Z,16.49
2018-05-23T20:42:42.008Z,16.44
2018-05-23T20:45:10.265Z,16.41
2018-05-23T20:47:39.350Z,16.37
2018-05-23T20:50:07.528Z,16.38
2018-05-23T20:52:35.777Z,16.37
2018-05-23T20:55:04.013Z,16.40
2018-05-23T20:57:32.269Z,16.44
2018-05-23T21:00:01.284Z,16.39
2018-05-23T21:02:29.536Z,16.38
2018-05-23T21:04:58.547Z,16.41
2018-05-23T21:07:26.804Z,16.38
2018-05-23T21:09:55.818Z,16.39
2018-05-23T21:12:24.070Z,16.40
2018-05-23T21:14:53.087Z,16.38
2018-05-23T21:17:21.348Z,16.42
2018-05-23T21:19:50.349Z,16.41
2018-05-23T21:22:18.605Z,16.41
2018-05-23T21:24:47.624Z,16.41
2018-05-23T21:27:15.873Z,16.42
2018-05-23T21:29:44.891Z,16.43
2018-05-23T21:32:13.135Z,16.46
2018-05-23T21:34:42.151Z,16.47
2018-05-23T21:37:10.403Z,16.43
2018-05-23T21:39:39.411Z,16.48
2018-05-23T21:42:09.184Z,16.51
2018-05-23T21:44:37.436Z,16.45
2018-05-23T21:47:05.678Z,16.44
2018-05-23T21:49:34.692Z,16.39
2018-05-23T21:52:02.933Z,16.34
2018-05-23T21:56:59.488Z,16.25
2018-05-23T21:59:28.508Z,16.16
2018-05-23T22:01:56.751Z,16.12
2018-05-23T22:04:25.000Z,16.14
2018-05-23T22:06:53.244Z,16.13
2018-05-23T22:09:21.499Z,16.10
2018-05-23T22:11:49.748Z,16.11
2018-05-23T22:14:18.000Z,16.11
2018-05-23T22:16:46.243Z,16.09
2018-05-23T22:19:14.498Z,16.04
2018-05-23T22:21:42.748Z,15.98
2018-05-23T22:24:11.019Z,15.89
2018-05-23T22:26:40.771Z,15.80
2018-05-23T22:29:09.029Z,15.75
2018-05-23T22:31:38.044Z,15.72
2018-05-23T22:34:06.300Z,15.74
2018-05-23T22:36:35.307Z,15.72
2018-05-23T22:39:03.571Z,15.71
2018-05-23T22:41:32.675Z,15.70
2018-05-23T22:44:00.930Z,15.63
2018-05-23T22:46:29.943Z,15.59
2018-05-23T22:48:58.203Z,15.50
2018-05-23T22:51:27.207Z,15.39
2018-05-23T22:53:55.474Z,15.27
2018-05-23T22:56:24.479Z,15.25
2018-05-23T22:58:52.738Z,15.27
2018-05-23T23:01:21.756Z,15.27
2018-05-23T23:03:49.999Z,15.26
2018-05-23T23:06:19.015Z,15.22
2018-05-23T23:08:47.269Z,15.27
2018-05-23T23:11:16.283Z,15.28
2018-05-23T23:13:44.522Z,15.23
2018-05-23T23:16:12.775Z,15.25
2018-05-23T23:18:41.025Z,15.26
2018-05-23T23:21:09.273Z,15.27
2018-05-23T23:23:38.283Z,15.22
2018-05-23T23:26:06.533Z,15.25
2018-05-23T23:28:35.539Z,15.20
2018-05-23T23:31:03.791Z,15.18
2018-05-23T23:33:32.040Z,15.19
2018-05-23T23:36:00.291Z,15.17
2018-05-23T23:38:28.536Z,15.14
2018-05-23T23:40:57.556Z,15.11
2018-05-23T23:43:25.799Z,15.02
2018-05-23T23:45:54.820Z,14.97
2018-05-23T23:48:23.074Z,14.92
2018-05-23T23:50:52.097Z,14.91
2018-05-23T23:53:20.347Z,14.90
2018-05-23T23:55:49.364Z,14.93
2018-05-23T23:58:17.612Z,14.92
